sensor_id;sensor_type;location;lat;lon;timestamp;P1;durP1;ratioP1;P2;durP2;ratioP2
57467;SDS011;43311;51.196;7.518;2023-10-31T00:01:01;6.00;;;4.20;;
57467;SDS011;43311;51.196;7.518;2023-10-31T00:03:27;5.28;;;4.65;;
57467;SDS011;43311;51.196;7.518;2023-10-31T00:05:52;4.07;;;3.40;;
57467;SDS011;43311;51.196;7.518;2023-10-31T00:08:18;4.05;;;3.20;;
57467;SDS011;43311;51.196;7.518;2023-10-31T00:10:43;4.45;;;3.90;;
57467;SDS011;43311;51.196;7.518;2023-10-31T00:13:10;4.10;;;3.70;;
57467;SDS011;43311;51.196;7.518;2023-10-31T00:15:36;3.90;;;3.15;;
57467;SDS011;43311;51.196;7.518;2023-10-31T00:18:02;3.25;;;2.83;;
57467;SDS011;43311;51.196;7.518;2023-10-31T00:20:27;2.67;;;2.47;;
57467;SDS011;43311;51.196;7.518;2023-10-31T00:22:53;2.72;;;2.33;;
57467;SDS011;43311;51.196;7.518;2023-10-31T00:25:18;3.33;;;2.53;;
57467;SDS011;43311;51.196;7.518;2023-10-31T00:27:44;3.20;;;2.55;;
57467;SDS011;43311;51.196;7.518;2023-10-31T00:30:10;3.00;;;2.70;;
57467;SDS011;43311;51.196;7.518;2023-10-31T00:32:35;3.03;;;2.65;;
57467;SDS011;43311;51.196;7.518;2023-10-31T00:35:01;4.25;;;2.38;;
57467;SDS011;43311;51.196;7.518;2023-10-31T00:37:27;3.40;;;2.22;;
57467;SDS011;43311;51.196;7.518;2023-10-31T00:39:52;2.97;;;2.15;;
57467;SDS011;43311;51.196;7.518;2023-10-31T00:42:18;2.70;;;2.30;;
57467;SDS011;43311;51.196;7.518;2023-10-31T00:44:43;2.53;;;2.33;;
57467;SDS011;43311;51.196;7.518;2023-10-31T00:47:09;2.35;;;2.15;;
57467;SDS011;43311;51.196;7.518;2023-10-31T00:49:34;2.25;;;2.00;;
57467;SDS011;43311;51.196;7.518;2023-10-31T00:52:01;2.28;;;1.98;;
57467;SDS011;43311;51.196;7.518;2023-10-31T00:54:27;3.17;;;2.30;;
57467;SDS011;43311;51.196;7.518;2023-10-31T00:56:52;2.33;;;2.03;;
57467;SDS011;43311;51.196;7.518;2023-10-31T00:59:18;3.85;;;1.88;;
57467;SDS011;43311;51.196;7.518;2023-10-31T01:01:43;3.70;;;2.90;;
57467;SDS011;43311;51.196;7.518;2023-10-31T01:04:10;4.53;;;3.30;;
57467;SDS011;43311;51.196;7.518;2023-10-31T01:06:42;5.78;;;4.20;;
57467;SDS011;43311;51.196;7.518;2023-10-31T01:09:08;4.55;;;3.08;;
57467;SDS011;43311;51.196;7.518;2023-10-31T01:11:34;3.85;;;3.00;;
57467;SDS011;43311;51.196;7.518;2023-10-31T01:14:00;3.80;;;3.03;;
57467;SDS011;43311;51.196;7.518;2023-10-31T01:16:26;5.10;;;3.20;;
57467;SDS011;43311;51.196;7.518;2023-10-31T01:18:52;5.97;;;4.63;;
57467;SDS011;43311;51.196;7.518;2023-10-31T01:21:17;6.32;;;4.22;;
57467;SDS011;43311;51.196;7.518;2023-10-31T01:23:45;6.80;;;4.27;;
57467;SDS011;43311;51.196;7.518;2023-10-31T01:26:11;5.85;;;4.35;;
57467;SDS011;43311;51.196;7.518;2023-10-31T01:44:56;6.22;;;3.53;;
57467;SDS011;43311;51.196;7.518;2023-10-31T01:47:22;3.80;;;2.75;;
57467;SDS011;43311;51.196;7.518;2023-10-31T01:49:49;4.10;;;2.00;;
57467;SDS011;43311;51.196;7.518;2023-10-31T01:52:16;3.45;;;2.10;;
57467;SDS011;43311;51.196;7.518;2023-10-31T01:54:42;4.93;;;2.25;;
57467;SDS011;43311;51.196;7.518;2023-10-31T01:57:09;4.55;;;1.80;;
57467;SDS011;43311;51.196;7.518;2023-10-31T01:59:35;5.28;;;2.22;;
57467;SDS011;43311;51.196;7.518;2023-10-31T02:02:00;6.85;;;2.17;;
57467;SDS011;43311;51.196;7.518;2023-10-31T02:04:26;5.53;;;2.30;;
57467;SDS011;43311;51.196;7.518;2023-10-31T02:06:51;5.47;;;2.20;;
57467;SDS011;43311;51.196;7.518;2023-10-31T02:09:18;4.22;;;1.90;;
57467;SDS011;43311;51.196;7.518;2023-10-31T02:11:43;5.72;;;2.67;;
57467;SDS011;43311;51.196;7.518;2023-10-31T02:14:09;3.83;;;2.60;;
57467;SDS011;43311;51.196;7.518;2023-10-31T02:16:34;6.10;;;3.20;;
57467;SDS011;43311;51.196;7.518;2023-10-31T02:19:00;6.47;;;4.13;;
57467;SDS011;43311;51.196;7.518;2023-10-31T02:21:25;6.38;;;4.25;;
57467;SDS011;43311;51.196;7.518;2023-10-31T02:23:59;7.00;;;4.80;;
57467;SDS011;43311;51.196;7.518;2023-10-31T02:26:29;6.53;;;4.38;;
57467;SDS011;43311;51.196;7.518;2023-10-31T02:28:55;6.53;;;4.53;;
57467;SDS011;43311;51.196;7.518;2023-10-31T02:31:20;6.60;;;4.65;;
57467;SDS011;43311;51.196;7.518;2023-10-31T02:33:46;6.20;;;4.55;;
57467;SDS011;43311;51.196;7.518;2023-10-31T02:36:11;9.70;;;4.20;;
57467;SDS011;43311;51.196;7.518;2023-10-31T02:38:37;9.13;;;4.65;;
57467;SDS011;43311;51.196;7.518;2023-10-31T02:41:02;5.97;;;4.53;;
57467;SDS011;43311;51.196;7.518;2023-10-31T02:43:28;9.05;;;5.18;;
57467;SDS011;43311;51.196;7.518;2023-10-31T02:45:53;8.50;;;5.00;;
57467;SDS011;43311;51.196;7.518;2023-10-31T02:48:20;7.88;;;5.05;;
57467;SDS011;43311;51.196;7.518;2023-10-31T02:50:45;9.50;;;5.65;;
57467;SDS011;43311;51.196;7.518;2023-10-31T02:53:11;9.75;;;6.35;;
57467;SDS011;43311;51.196;7.518;2023-10-31T02:55:36;8.82;;;6.05;;
57467;SDS011;43311;51.196;7.518;2023-10-31T02:58:02;11.65;;;7.15;;
57467;SDS011;43311;51.196;7.518;2023-10-31T03:00:27;8.32;;;5.88;;
57467;SDS011;43311;51.196;7.518;2023-10-31T03:02:53;11.45;;;6.30;;
57467;SDS011;43311;51.196;7.518;2023-10-31T03:05:18;11.13;;;6.50;;
57467;SDS011;43311;51.196;7.518;2023-10-31T03:07:44;11.48;;;6.60;;
57467;SDS011;43311;51.196;7.518;2023-10-31T03:10:10;11.95;;;7.53;;
57467;SDS011;43311;51.196;7.518;2023-10-31T03:12:35;13.57;;;7.82;;
57467;SDS011;43311;51.196;7.518;2023-10-31T03:15:02;13.23;;;6.47;;
57467;SDS011;43311;51.196;7.518;2023-10-31T03:17:29;10.60;;;6.88;;
57467;SDS011;43311;51.196;7.518;2023-10-31T03:19:54;14.88;;;7.22;;
57467;SDS011;43311;51.196;7.518;2023-10-31T03:22:20;10.93;;;6.95;;
57467;SDS011;43311;51.196;7.518;2023-10-31T03:24:46;11.05;;;7.35;;
57467;SDS011;43311;51.196;7.518;2023-10-31T03:27:11;14.18;;;8.55;;
57467;SDS011;43311;51.196;7.518;2023-10-31T03:29:37;12.32;;;9.00;;
57467;SDS011;43311;51.196;7.518;2023-10-31T03:32:02;17.63;;;10.07;;
57467;SDS011;43311;51.196;7.518;2023-10-31T03:34:30;15.52;;;9.55;;
57467;SDS011;43311;51.196;7.518;2023-10-31T03:36:55;20.17;;;11.10;;
57467;SDS011;43311;51.196;7.518;2023-10-31T03:39:21;15.65;;;10.55;;
57467;SDS011;43311;51.196;7.518;2023-10-31T03:41:46;14.48;;;8.30;;
57467;SDS011;43311;51.196;7.518;2023-10-31T03:44:12;19.17;;;9.02;;
57467;SDS011;43311;51.196;7.518;2023-10-31T03:46:37;15.55;;;8.55;;
57467;SDS011;43311;51.196;7.518;2023-10-31T03:49:03;15.68;;;8.50;;
57467;SDS011;43311;51.196;7.518;2023-10-31T03:51:28;12.35;;;8.07;;
57467;SDS011;43311;51.196;7.518;2023-10-31T03:53:54;14.68;;;8.73;;
57467;SDS011;43311;51.196;7.518;2023-10-31T03:56:19;12.80;;;7.97;;
57467;SDS011;43311;51.196;7.518;2023-10-31T03:58:44;12.25;;;7.68;;
57467;SDS011;43311;51.196;7.518;2023-10-31T04:01:11;13.80;;;7.85;;
57467;SDS011;43311;51.196;7.518;2023-10-31T04:03:36;12.20;;;7.20;;
57467;SDS011;43311;51.196;7.518;2023-10-31T04:06:02;18.85;;;7.50;;
57467;SDS011;43311;51.196;7.518;2023-10-31T04:08:28;10.77;;;6.78;;
57467;SDS011;43311;51.196;7.518;2023-10-31T04:10:53;13.75;;;8.05;;
57467;SDS011;43311;51.196;7.518;2023-10-31T04:13:18;11.35;;;7.07;;
57467;SDS011;43311;51.196;7.518;2023-10-31T04:15:44;13.80;;;7.13;;
57467;SDS011;43311;51.196;7.518;2023-10-31T04:18:09;13.70;;;7.80;;
57467;SDS011;43311;51.196;7.518;2023-10-31T04:20:35;11.30;;;6.60;;
57467;SDS011;43311;51.196;7.518;2023-10-31T04:23:00;11.40;;;6.82;;
57467;SDS011;43311;51.196;7.518;2023-10-31T04:25:26;9.25;;;6.15;;
57467;SDS011;43311;51.196;7.518;2023-10-31T04:27:53;8.20;;;5.67;;
57467;SDS011;43311;51.196;7.518;2023-10-31T04:30:19;11.70;;;6.10;;
57467;SDS011;43311;51.196;7.518;2023-10-31T04:32:44;10.90;;;6.22;;
57467;SDS011;43311;51.196;7.518;2023-10-31T04:35:11;8.65;;;4.80;;
57467;SDS011;43311;51.196;7.518;2023-10-31T04:37:36;7.00;;;5.28;;
57467;SDS011;43311;51.196;7.518;2023-10-31T04:40:01;8.50;;;5.47;;
57467;SDS011;43311;51.196;7.518;2023-10-31T04:42:27;9.43;;;6.10;;
57467;SDS011;43311;51.196;7.518;2023-10-31T04:44:52;11.18;;;6.35;;
57467;SDS011;43311;51.196;7.518;2023-10-31T04:47:18;8.35;;;4.97;;
57467;SDS011;43311;51.196;7.518;2023-10-31T04:49:43;6.57;;;4.75;;
57467;SDS011;43311;51.196;7.518;2023-10-31T04:52:09;5.63;;;4.38;;
57467;SDS011;43311;51.196;7.518;2023-10-31T04:54:34;6.65;;;4.55;;
57467;SDS011;43311;51.196;7.518;2023-10-31T04:57:00;7.10;;;4.82;;
57467;SDS011;43311;51.196;7.518;2023-10-31T04:59:25;10.10;;;5.63;;
57467;SDS011;43311;51.196;7.518;2023-10-31T05:01:50;8.25;;;4.95;;
57467;SDS011;43311;51.196;7.518;2023-10-31T05:04:17;6.80;;;4.90;;
57467;SDS011;43311;51.196;7.518;2023-10-31T05:06:43;7.03;;;5.00;;
57467;SDS011;43311;51.196;7.518;2023-10-31T05:09:09;7.85;;;5.05;;
57467;SDS011;43311;51.196;7.518;2023-10-31T05:11:35;7.75;;;4.70;;
57467;SDS011;43311;51.196;7.518;2023-10-31T05:14:01;6.55;;;4.28;;
57467;SDS011;43311;51.196;7.518;2023-10-31T05:16:26;7.53;;;4.70;;
57467;SDS011;43311;51.196;7.518;2023-10-31T05:18:53;5.95;;;4.28;;
57467;SDS011;43311;51.196;7.518;2023-10-31T05:21:19;5.75;;;4.05;;
57467;SDS011;43311;51.196;7.518;2023-10-31T05:23:46;6.47;;;4.45;;
57467;SDS011;43311;51.196;7.518;2023-10-31T05:26:11;6.40;;;4.60;;
57467;SDS011;43311;51.196;7.518;2023-10-31T05:28:37;8.10;;;5.55;;
57467;SDS011;43311;51.196;7.518;2023-10-31T05:31:02;10.63;;;6.43;;
57467;SDS011;43311;51.196;7.518;2023-10-31T05:33:28;12.52;;;7.55;;
57467;SDS011;43311;51.196;7.518;2023-10-31T05:35:54;11.13;;;7.88;;
57467;SDS011;43311;51.196;7.518;2023-10-31T05:38:19;13.65;;;7.53;;
57467;SDS011;43311;51.196;7.518;2023-10-31T05:40:45;13.43;;;7.60;;
57467;SDS011;43311;51.196;7.518;2023-10-31T05:43:11;12.50;;;7.30;;
57467;SDS011;43311;51.196;7.518;2023-10-31T05:45:36;13.55;;;7.80;;
57467;SDS011;43311;51.196;7.518;2023-10-31T05:48:01;16.52;;;9.90;;
57467;SDS011;43311;51.196;7.518;2023-10-31T05:50:28;16.35;;;9.60;;
57467;SDS011;43311;51.196;7.518;2023-10-31T05:52:54;11.80;;;8.57;;
57467;SDS011;43311;51.196;7.518;2023-10-31T05:55:19;11.43;;;6.78;;
57467;SDS011;43311;51.196;7.518;2023-10-31T05:57:45;11.75;;;8.52;;
57467;SDS011;43311;51.196;7.518;2023-10-31T06:00:10;10.13;;;6.97;;
57467;SDS011;43311;51.196;7.518;2023-10-31T06:02:39;12.98;;;7.82;;
57467;SDS011;43311;51.196;7.518;2023-10-31T06:05:04;10.65;;;7.00;;
57467;SDS011;43311;51.196;7.518;2023-10-31T06:07:30;9.13;;;6.32;;
57467;SDS011;43311;51.196;7.518;2023-10-31T06:09:56;8.73;;;5.88;;
57467;SDS011;43311;51.196;7.518;2023-10-31T06:12:21;10.68;;;6.47;;
57467;SDS011;43311;51.196;7.518;2023-10-31T06:14:46;10.68;;;7.13;;
57467;SDS011;43311;51.196;7.518;2023-10-31T06:17:12;11.07;;;7.15;;
57467;SDS011;43311;51.196;7.518;2023-10-31T06:19:38;15.20;;;7.45;;
57467;SDS011;43311;51.196;7.518;2023-10-31T06:22:03;13.60;;;6.85;;
57467;SDS011;43311;51.196;7.518;2023-10-31T06:24:29;12.82;;;8.60;;
57467;SDS011;43311;51.196;7.518;2023-10-31T06:26:55;13.50;;;7.10;;
57467;SDS011;43311;51.196;7.518;2023-10-31T06:29:20;11.55;;;8.30;;
57467;SDS011;43311;51.196;7.518;2023-10-31T06:31:45;12.48;;;8.88;;
57467;SDS011;43311;51.196;7.518;2023-10-31T06:34:11;13.77;;;7.82;;
57467;SDS011;43311;51.196;7.518;2023-10-31T06:36:36;9.93;;;6.20;;
57467;SDS011;43311;51.196;7.518;2023-10-31T06:39:02;12.85;;;7.10;;
57467;SDS011;43311;51.196;7.518;2023-10-31T06:41:27;11.10;;;6.55;;
57467;SDS011;43311;51.196;7.518;2023-10-31T06:43:53;9.52;;;6.03;;
57467;SDS011;43311;51.196;7.518;2023-10-31T06:46:18;8.75;;;5.90;;
57467;SDS011;43311;51.196;7.518;2023-10-31T06:48:44;6.20;;;4.38;;
57467;SDS011;43311;51.196;7.518;2023-10-31T06:51:09;9.30;;;4.63;;
57467;SDS011;43311;51.196;7.518;2023-10-31T06:53:35;5.88;;;4.50;;
57467;SDS011;43311;51.196;7.518;2023-10-31T06:56:00;6.45;;;4.13;;
57467;SDS011;43311;51.196;7.518;2023-10-31T06:58:26;6.03;;;3.53;;
57467;SDS011;43311;51.196;7.518;2023-10-31T07:00:51;5.75;;;4.40;;
57467;SDS011;43311;51.196;7.518;2023-10-31T07:03:17;6.43;;;4.38;;
57467;SDS011;43311;51.196;7.518;2023-10-31T07:05:42;8.50;;;4.50;;
57467;SDS011;43311;51.196;7.518;2023-10-31T07:08:08;5.55;;;4.53;;
57467;SDS011;43311;51.196;7.518;2023-10-31T07:10:33;6.88;;;4.65;;
57467;SDS011;43311;51.196;7.518;2023-10-31T07:12:59;8.00;;;4.47;;
57467;SDS011;43311;51.196;7.518;2023-10-31T07:15:25;11.82;;;4.65;;
57467;SDS011;43311;51.196;7.518;2023-10-31T07:17:51;7.53;;;5.20;;
57467;SDS011;43311;51.196;7.518;2023-10-31T07:20:16;9.00;;;4.80;;
57467;SDS011;43311;51.196;7.518;2023-10-31T07:22:42;9.75;;;5.18;;
57467;SDS011;43311;51.196;7.518;2023-10-31T07:25:07;9.15;;;4.75;;
57467;SDS011;43311;51.196;7.518;2023-10-31T07:27:33;8.77;;;5.25;;
57467;SDS011;43311;51.196;7.518;2023-10-31T07:29:58;6.45;;;4.25;;
57467;SDS011;43311;51.196;7.518;2023-10-31T07:32:24;6.05;;;4.75;;
57467;SDS011;43311;51.196;7.518;2023-10-31T07:34:50;8.23;;;5.07;;
57467;SDS011;43311;51.196;7.518;2023-10-31T07:37:17;7.65;;;4.97;;
57467;SDS011;43311;51.196;7.518;2023-10-31T07:39:42;9.95;;;5.32;;
57467;SDS011;43311;51.196;7.518;2023-10-31T07:42:07;8.73;;;5.25;;
57467;SDS011;43311;51.196;7.518;2023-10-31T07:44:34;8.93;;;5.80;;
57467;SDS011;43311;51.196;7.518;2023-10-31T07:46:59;8.07;;;5.20;;
57467;SDS011;43311;51.196;7.518;2023-10-31T07:49:25;9.07;;;5.38;;
57467;SDS011;43311;51.196;7.518;2023-10-31T07:51:50;8.25;;;5.53;;
57467;SDS011;43311;51.196;7.518;2023-10-31T07:54:16;8.65;;;5.65;;
57467;SDS011;43311;51.196;7.518;2023-10-31T07:56:42;8.82;;;5.22;;
57467;SDS011;43311;51.196;7.518;2023-10-31T07:59:08;7.10;;;5.15;;
57467;SDS011;43311;51.196;7.518;2023-10-31T08:01:34;9.13;;;5.38;;
57467;SDS011;43311;51.196;7.518;2023-10-31T08:04:00;11.23;;;6.35;;
57467;SDS011;43311;51.196;7.518;2023-10-31T08:06:25;14.15;;;9.20;;
57467;SDS011;43311;51.196;7.518;2023-10-31T08:08:51;11.38;;;7.63;;
57467;SDS011;43311;51.196;7.518;2023-10-31T08:11:16;15.00;;;8.80;;
57467;SDS011;43311;51.196;7.518;2023-10-31T08:13:42;12.18;;;8.40;;
57467;SDS011;43311;51.196;7.518;2023-10-31T08:16:08;14.90;;;9.57;;
57467;SDS011;43311;51.196;7.518;2023-10-31T08:18:33;13.52;;;8.70;;
57467;SDS011;43311;51.196;7.518;2023-10-31T08:20:59;11.73;;;7.78;;
57467;SDS011;43311;51.196;7.518;2023-10-31T08:23:25;11.48;;;7.97;;
57467;SDS011;43311;51.196;7.518;2023-10-31T08:25:50;15.02;;;8.48;;
57467;SDS011;43311;51.196;7.518;2023-10-31T08:28:16;13.27;;;8.13;;
57467;SDS011;43311;51.196;7.518;2023-10-31T08:30:42;15.63;;;8.65;;
57467;SDS011;43311;51.196;7.518;2023-10-31T08:33:07;14.80;;;8.40;;
57467;SDS011;43311;51.196;7.518;2023-10-31T08:35:33;11.18;;;8.48;;
57467;SDS011;43311;51.196;7.518;2023-10-31T08:37:58;13.98;;;7.93;;
57467;SDS011;43311;51.196;7.518;2023-10-31T08:40:26;15.07;;;9.35;;
57467;SDS011;43311;51.196;7.518;2023-10-31T08:42:52;17.85;;;9.75;;
57467;SDS011;43311;51.196;7.518;2023-10-31T08:45:18;17.40;;;10.57;;
57467;SDS011;43311;51.196;7.518;2023-10-31T08:47:43;17.75;;;9.60;;
57467;SDS011;43311;51.196;7.518;2023-10-31T08:50:09;18.05;;;10.55;;
57467;SDS011;43311;51.196;7.518;2023-10-31T08:52:36;22.00;;;12.40;;
57467;SDS011;43311;51.196;7.518;2023-10-31T08:55:01;17.45;;;10.80;;
57467;SDS011;43311;51.196;7.518;2023-10-31T08:57:27;20.83;;;11.40;;
57467;SDS011;43311;51.196;7.518;2023-10-31T08:59:52;19.80;;;11.68;;
57467;SDS011;43311;51.196;7.518;2023-10-31T09:02:18;23.33;;;11.73;;
57467;SDS011;43311;51.196;7.518;2023-10-31T09:04:43;17.70;;;10.52;;
57467;SDS011;43311;51.196;7.518;2023-10-31T09:07:08;20.10;;;11.02;;
57467;SDS011;43311;51.196;7.518;2023-10-31T09:09:34;17.30;;;10.25;;
57467;SDS011;43311;51.196;7.518;2023-10-31T09:11:59;17.08;;;10.32;;
57467;SDS011;43311;51.196;7.518;2023-10-31T09:14:25;17.65;;;10.55;;
57467;SDS011;43311;51.196;7.518;2023-10-31T09:16:50;16.63;;;9.88;;
57467;SDS011;43311;51.196;7.518;2023-10-31T09:19:15;16.08;;;9.88;;
57467;SDS011;43311;51.196;7.518;2023-10-31T09:21:41;14.43;;;9.27;;
57467;SDS011;43311;51.196;7.518;2023-10-31T09:24:07;14.90;;;9.13;;
57467;SDS011;43311;51.196;7.518;2023-10-31T09:26:33;14.00;;;8.95;;
57467;SDS011;43311;51.196;7.518;2023-10-31T09:28:58;12.30;;;8.00;;
57467;SDS011;43311;51.196;7.518;2023-10-31T09:31:24;10.95;;;7.78;;
57467;SDS011;43311;51.196;7.518;2023-10-31T09:33:49;12.07;;;8.27;;
57467;SDS011;43311;51.196;7.518;2023-10-31T09:36:15;12.48;;;8.18;;
57467;SDS011;43311;51.196;7.518;2023-10-31T09:38:40;13.48;;;8.32;;
57467;SDS011;43311;51.196;7.518;2023-10-31T09:41:06;14.15;;;8.43;;
57467;SDS011;43311;51.196;7.518;2023-10-31T09:43:31;17.02;;;8.57;;
57467;SDS011;43311;51.196;7.518;2023-10-31T09:45:57;12.85;;;8.43;;
57467;SDS011;43311;51.196;7.518;2023-10-31T09:48:25;12.77;;;7.63;;
57467;SDS011;43311;51.196;7.518;2023-10-31T09:50:51;16.13;;;8.88;;
57467;SDS011;43311;51.196;7.518;2023-10-31T09:53:18;11.63;;;8.05;;
57467;SDS011;43311;51.196;7.518;2023-10-31T09:55:44;12.82;;;8.32;;
57467;SDS011;43311;51.196;7.518;2023-10-31T09:58:11;12.90;;;8.88;;
57467;SDS011;43311;51.196;7.518;2023-10-31T10:00:36;13.77;;;9.20;;
57467;SDS011;43311;51.196;7.518;2023-10-31T10:03:11;13.93;;;8.32;;
57467;SDS011;43311;51.196;7.518;2023-10-31T10:05:37;18.13;;;8.63;;
57467;SDS011;43311;51.196;7.518;2023-10-31T10:08:06;14.07;;;8.00;;
57467;SDS011;43311;51.196;7.518;2023-10-31T10:10:33;14.05;;;8.45;;
57467;SDS011;43311;51.196;7.518;2023-10-31T10:12:59;10.90;;;7.63;;
57467;SDS011;43311;51.196;7.518;2023-10-31T10:15:27;13.98;;;8.60;;
57467;SDS011;43311;51.196;7.518;2023-10-31T10:17:53;12.20;;;7.50;;
57467;SDS011;43311;51.196;7.518;2023-10-31T10:20:19;13.32;;;7.68;;
57467;SDS011;43311;51.196;7.518;2023-10-31T10:22:45;13.48;;;7.57;;
57467;SDS011;43311;51.196;7.518;2023-10-31T10:25:12;12.57;;;7.60;;
57467;SDS011;43311;51.196;7.518;2023-10-31T10:27:41;16.38;;;8.73;;
57467;SDS011;43311;51.196;7.518;2023-10-31T10:30:07;12.55;;;8.50;;
57467;SDS011;43311;51.196;7.518;2023-10-31T10:32:33;12.27;;;7.88;;
57467;SDS011;43311;51.196;7.518;2023-10-31T10:34:59;14.60;;;8.50;;
57467;SDS011;43311;51.196;7.518;2023-10-31T10:37:29;13.20;;;8.18;;
57467;SDS011;43311;51.196;7.518;2023-10-31T10:39:55;16.63;;;8.52;;
57467;SDS011;43311;51.196;7.518;2023-10-31T10:42:31;13.68;;;8.90;;
57467;SDS011;43311;51.196;7.518;2023-10-31T10:45:04;12.65;;;7.95;;
57467;SDS011;43311;51.196;7.518;2023-10-31T10:47:33;13.32;;;8.85;;
57467;SDS011;43311;51.196;7.518;2023-10-31T10:50:00;15.90;;;9.05;;
57467;SDS011;43311;51.196;7.518;2023-10-31T10:52:29;11.55;;;7.75;;
57467;SDS011;43311;51.196;7.518;2023-10-31T10:55:04;12.10;;;6.70;;
57467;SDS011;43311;51.196;7.518;2023-10-31T11:00:33;11.02;;;6.80;;
57467;SDS011;43311;51.196;7.518;2023-10-31T11:02:59;12.73;;;6.50;;
57467;SDS011;43311;51.196;7.518;2023-10-31T11:05:26;9.38;;;5.40;;
57467;SDS011;43311;51.196;7.518;2023-10-31T11:07:52;10.65;;;6.10;;
57467;SDS011;43311;51.196;7.518;2023-10-31T11:10:18;11.40;;;6.10;;
57467;SDS011;43311;51.196;7.518;2023-10-31T11:12:44;9.13;;;6.05;;
57467;SDS011;43311;51.196;7.518;2023-10-31T11:15:11;12.60;;;6.60;;
57467;SDS011;43311;51.196;7.518;2023-10-31T11:17:40;11.60;;;6.78;;
57467;SDS011;43311;51.196;7.518;2023-10-31T11:20:12;12.30;;;7.75;;
57467;SDS011;43311;51.196;7.518;2023-10-31T11:22:40;12.13;;;6.43;;
57467;SDS011;43311;51.196;7.518;2023-10-31T11:25:10;10.77;;;6.63;;
57467;SDS011;43311;51.196;7.518;2023-10-31T11:27:40;9.45;;;6.50;;
57467;SDS011;43311;51.196;7.518;2023-10-31T11:30:07;9.73;;;5.70;;
57467;SDS011;43311;51.196;7.518;2023-10-31T11:32:48;12.02;;;6.63;;
57467;SDS011;43311;51.196;7.518;2023-10-31T11:35:16;8.43;;;6.43;;
57467;SDS011;43311;51.196;7.518;2023-10-31T11:37:43;8.80;;;5.90;;
57467;SDS011;43311;51.196;7.518;2023-10-31T11:40:18;10.35;;;5.43;;
57467;SDS011;43311;51.196;7.518;2023-10-31T11:42:49;14.50;;;5.40;;
57467;SDS011;43311;51.196;7.518;2023-10-31T11:48:12;7.80;;;5.47;;
57467;SDS011;43311;51.196;7.518;2023-10-31T11:50:39;8.18;;;5.38;;
57467;SDS011;43311;51.196;7.518;2023-10-31T11:53:08;9.73;;;5.25;;
57467;SDS011;43311;51.196;7.518;2023-10-31T11:55:41;10.85;;;5.95;;
57467;SDS011;43311;51.196;7.518;2023-10-31T11:58:24;9.43;;;5.32;;
57467;SDS011;43311;51.196;7.518;2023-10-31T12:01:05;9.93;;;5.85;;
57467;SDS011;43311;51.196;7.518;2023-10-31T12:03:38;7.15;;;5.30;;
57467;SDS011;43311;51.196;7.518;2023-10-31T12:06:05;7.60;;;5.25;;
57467;SDS011;43311;51.196;7.518;2023-10-31T12:08:33;6.90;;;5.45;;
57467;SDS011;43311;51.196;7.518;2023-10-31T12:13:35;8.60;;;4.47;;
57467;SDS011;43311;51.196;7.518;2023-10-31T12:16:25;8.63;;;4.53;;
57467;SDS011;43311;51.196;7.518;2023-10-31T12:18:56;7.45;;;4.18;;
57467;SDS011;43311;51.196;7.518;2023-10-31T12:21:38;6.28;;;3.95;;
57467;SDS011;43311;51.196;7.518;2023-10-31T12:24:15;6.80;;;4.15;;
57467;SDS011;43311;51.196;7.518;2023-10-31T12:26:42;7.05;;;3.90;;
57467;SDS011;43311;51.196;7.518;2023-10-31T12:29:16;5.95;;;4.22;;
57467;SDS011;43311;51.196;7.518;2023-10-31T12:34:17;14.70;;;4.82;;
57467;SDS011;43311;51.196;7.518;2023-10-31T12:36:45;6.50;;;4.13;;
57467;SDS011;43311;51.196;7.518;2023-10-31T12:39:12;7.33;;;4.37;;
57467;SDS011;43311;51.196;7.518;2023-10-31T12:41:38;7.18;;;3.75;;
57467;SDS011;43311;51.196;7.518;2023-10-31T12:44:05;8.13;;;3.83;;
57467;SDS011;43311;51.196;7.518;2023-10-31T12:46:31;9.02;;;4.15;;
57467;SDS011;43311;51.196;7.518;2023-10-31T12:48:58;6.72;;;3.17;;
57467;SDS011;43311;51.196;7.518;2023-10-31T12:51:24;8.50;;;3.17;;
57467;SDS011;43311;51.196;7.518;2023-10-31T12:53:50;4.45;;;2.88;;
57467;SDS011;43311;51.196;7.518;2023-10-31T12:56:38;3.30;;;2.33;;
57467;SDS011;43311;51.196;7.518;2023-10-31T12:59:08;5.78;;;3.10;;
57467;SDS011;43311;51.196;7.518;2023-10-31T13:01:36;5.10;;;2.35;;
57467;SDS011;43311;51.196;7.518;2023-10-31T13:04:02;4.63;;;2.30;;
57467;SDS011;43311;51.196;7.518;2023-10-31T13:06:29;4.32;;;2.65;;
57467;SDS011;43311;51.196;7.518;2023-10-31T13:08:57;4.75;;;1.98;;
57467;SDS011;43311;51.196;7.518;2023-10-31T13:11:24;2.78;;;1.77;;
57467;SDS011;43311;51.196;7.518;2023-10-31T13:13:54;3.72;;;1.85;;
57467;SDS011;43311;51.196;7.518;2023-10-31T13:16:20;5.93;;;2.22;;
57467;SDS011;43311;51.196;7.518;2023-10-31T13:18:45;3.53;;;1.92;;
57467;SDS011;43311;51.196;7.518;2023-10-31T13:21:11;6.30;;;2.53;;
57467;SDS011;43311;51.196;7.518;2023-10-31T13:23:39;4.10;;;1.88;;
57467;SDS011;43311;51.196;7.518;2023-10-31T13:26:11;4.68;;;1.70;;
57467;SDS011;43311;51.196;7.518;2023-10-31T13:28:37;4.25;;;1.92;;
57467;SDS011;43311;51.196;7.518;2023-10-31T13:31:04;6.60;;;2.75;;
57467;SDS011;43311;51.196;7.518;2023-10-31T13:33:29;3.78;;;1.88;;
57467;SDS011;43311;51.196;7.518;2023-10-31T13:35:55;5.78;;;2.10;;
57467;SDS011;43311;51.196;7.518;2023-10-31T13:38:20;5.50;;;1.70;;
57467;SDS011;43311;51.196;7.518;2023-10-31T13:40:46;2.45;;;1.40;;
57467;SDS011;43311;51.196;7.518;2023-10-31T13:43:11;3.83;;;1.90;;
57467;SDS011;43311;51.196;7.518;2023-10-31T13:45:37;2.53;;;1.70;;
57467;SDS011;43311;51.196;7.518;2023-10-31T13:48:02;5.65;;;1.83;;
57467;SDS011;43311;51.196;7.518;2023-10-31T13:50:28;2.90;;;2.15;;
57467;SDS011;43311;51.196;7.518;2023-10-31T13:52:53;7.07;;;1.38;;
57467;SDS011;43311;51.196;7.518;2023-10-31T13:55:19;2.47;;;1.67;;
57467;SDS011;43311;51.196;7.518;2023-10-31T13:57:45;3.95;;;1.92;;
57467;SDS011;43311;51.196;7.518;2023-10-31T14:00:10;2.80;;;1.98;;
57467;SDS011;43311;51.196;7.518;2023-10-31T14:02:39;4.85;;;2.03;;
57467;SDS011;43311;51.196;7.518;2023-10-31T14:05:05;7.40;;;2.47;;
57467;SDS011;43311;51.196;7.518;2023-10-31T14:07:31;3.08;;;2.08;;
57467;SDS011;43311;51.196;7.518;2023-10-31T14:09:57;6.07;;;2.30;;
57467;SDS011;43311;51.196;7.518;2023-10-31T14:12:22;3.17;;;1.83;;
57467;SDS011;43311;51.196;7.518;2023-10-31T14:14:48;4.25;;;1.70;;
57467;SDS011;43311;51.196;7.518;2023-10-31T14:17:16;4.03;;;2.70;;
57467;SDS011;43311;51.196;7.518;2023-10-31T14:19:42;5.07;;;2.20;;
57467;SDS011;43311;51.196;7.518;2023-10-31T14:22:11;6.70;;;2.45;;
57467;SDS011;43311;51.196;7.518;2023-10-31T14:24:38;5.35;;;2.05;;
57467;SDS011;43311;51.196;7.518;2023-10-31T14:27:04;5.13;;;2.08;;
57467;SDS011;43311;51.196;7.518;2023-10-31T14:29:29;6.38;;;2.10;;
57467;SDS011;43311;51.196;7.518;2023-10-31T14:31:55;7.78;;;2.10;;
57467;SDS011;43311;51.196;7.518;2023-10-31T14:34:22;4.00;;;1.80;;
57467;SDS011;43311;51.196;7.518;2023-10-31T14:36:48;5.30;;;1.75;;
57467;SDS011;43311;51.196;7.518;2023-10-31T14:39:13;5.35;;;2.05;;
57467;SDS011;43311;51.196;7.518;2023-10-31T14:41:39;3.28;;;1.90;;
57467;SDS011;43311;51.196;7.518;2023-10-31T14:44:05;5.90;;;1.88;;
57467;SDS011;43311;51.196;7.518;2023-10-31T14:46:31;5.35;;;2.13;;
57467;SDS011;43311;51.196;7.518;2023-10-31T14:48:57;3.28;;;1.90;;
57467;SDS011;43311;51.196;7.518;2023-10-31T14:51:23;12.27;;;2.40;;
57467;SDS011;43311;51.196;7.518;2023-10-31T14:53:49;6.47;;;1.85;;
57467;SDS011;43311;51.196;7.518;2023-10-31T14:56:14;5.13;;;1.83;;
57467;SDS011;43311;51.196;7.518;2023-10-31T14:58:40;3.40;;;2.00;;
57467;SDS011;43311;51.196;7.518;2023-10-31T15:01:07;3.88;;;1.73;;
57467;SDS011;43311;51.196;7.518;2023-10-31T15:03:33;6.25;;;1.80;;